createdAt,value
2019-03-31T00:00:28.668Z,8.70
2019-03-31T00:02:56.234Z,8.55
2019-03-31T00:05:23.739Z,8.68
2019-03-31T00:07:51.296Z,8.76
2019-03-31T00:10:18.767Z,8.85
2019-03-31T00:12:46.267Z,8.83
2019-03-31T00:15:13.783Z,8.59
2019-03-31T00:17:41.414Z,8.57
2019-03-31T00:20:08.922Z,8.44
2019-03-31T00:22:36.476Z,8.57
2019-03-31T00:25:04.039Z,8.72
2019-03-31T00:27:31.549Z,8.54
2019-03-31T00:29:59.033Z,8.35
2019-03-31T00:32:26.568Z,8.27
2019-03-31T00:34:54.136Z,8.32
2019-03-31T00:37:21.736Z,8.42
2019-03-31T00:39:49.280Z,8.57
2019-03-31T00:42:16.840Z,8.47
2019-03-31T00:44:44.311Z,8.33
2019-03-31T00:47:11.823Z,8.38
2019-03-31T00:49:39.298Z,8.43
2019-03-31T00:52:06.783Z,8.43
2019-03-31T00:54:34.318Z,8.34
2019-03-31T00:57:01.821Z,8.20
2019-03-31T00:59:29.359Z,8.32
2019-03-31T01:02:00.682Z,8.39
2019-03-31T01:04:30.674Z,8.29
2019-03-31T01:06:58.994Z,8.27
2019-03-31T01:09:28.928Z,8.28
2019-03-31T01:11:56.894Z,8.12
2019-03-31T01:14:24.697Z,8.01
2019-03-31T01:16:52.822Z,8.12
2019-03-31T01:19:20.808Z,8.15
2019-03-31T01:21:48.278Z,8.23
2019-03-31T01:24:15.807Z,8.17
2019-03-31T01:26:43.292Z,8.03
2019-03-31T01:29:12.377Z,7.97
2019-03-31T01:31:50.088Z,7.83
2019-03-31T01:34:09.691Z,7.69
2019-03-31T01:36:37.207Z,7.95
2019-03-31T01:39:06.682Z,8.01
2019-03-31T01:41:34.171Z,7.99
2019-03-31T01:44:01.656Z,8.07
2019-03-31T01:46:29.121Z,8.08
2019-03-31T01:48:56.613Z,8.09
2019-03-31T01:51:24.075Z,8.05
2019-03-31T01:53:51.590Z,8.02
2019-03-31T01:56:19.804Z,7.90
2019-03-31T01:58:47.298Z,7.94
2019-03-31T02:01:15.629Z,7.96
2019-03-31T02:03:43.135Z,7.98
2019-03-31T02:06:10.615Z,7.95
2019-03-31T02:08:38.193Z,8.00
2019-03-31T02:11:05.680Z,7.93
2019-03-31T02:13:33.174Z,8.01
2019-03-31T02:16:03.219Z,7.93
2019-03-31T02:18:30.680Z,8.08
2019-03-31T02:20:58.169Z,8.03
2019-03-31T02:23:25.659Z,8.03
2019-03-31T02:25:53.296Z,8.07
2019-03-31T02:28:20.761Z,8.07
2019-03-31T02:30:48.279Z,7.92
2019-03-31T02:33:15.737Z,7.96
2019-03-31T02:35:43.245Z,7.94
2019-03-31T02:38:10.819Z,8.12
2019-03-31T02:40:38.329Z,8.13
2019-03-31T02:43:05.813Z,8.03
2019-03-31T02:45:33.324Z,7.95
2019-03-31T02:48:00.835Z,7.83
2019-03-31T02:50:58.576Z,7.85
2019-03-31T02:53:26.069Z,8.12
2019-03-31T02:55:54.768Z,7.87
2019-03-31T02:58:22.681Z,7.80
2019-03-31T03:00:50.216Z,7.72
2019-03-31T03:03:18.495Z,7.88
2019-03-31T03:05:46.655Z,7.82
2019-03-31T03:08:16.022Z,7.77
2019-03-31T03:10:43.964Z,7.82
2019-03-31T03:13:13.554Z,7.95
2019-03-31T03:16:26.077Z,7.73
2019-03-31T03:18:53.568Z,7.85
2019-03-31T03:21:24.040Z,7.79
2019-03-31T03:23:50.595Z,7.81
2019-03-31T03:26:18.313Z,7.89
2019-03-31T03:28:45.889Z,7.84
2019-03-31T03:31:16.290Z,7.86
2019-03-31T03:33:43.575Z,7.80
2019-03-31T03:36:11.394Z,8.07
2019-03-31T03:38:38.860Z,8.01
2019-03-31T03:41:06.370Z,7.99
2019-03-31T03:43:33.860Z,7.96
2019-03-31T03:46:01.374Z,8.08
2019-03-31T03:48:28.854Z,8.15
2019-03-31T03:50:56.364Z,7.99
2019-03-31T03:53:23.837Z,7.74
2019-03-31T03:55:51.343Z,7.90
2019-03-31T03:58:18.882Z,7.86
2019-03-31T04:00:46.389Z,7.84
2019-03-31T04:03:29.232Z,7.96
2019-03-31T04:05:43.271Z,7.96
2019-03-31T04:08:10.856Z,8.00
2019-03-31T04:11:20.767Z,7.62
2019-03-31T04:13:46.290Z,7.83
2019-03-31T04:16:13.893Z,7.87
2019-03-31T04:18:41.434Z,7.79
2019-03-31T04:21:09.037Z,7.99
2019-03-31T04:23:36.513Z,8.07
2019-03-31T04:26:04.043Z,7.97
2019-03-31T04:28:31.538Z,8.01
2019-03-31T04:30:59.072Z,8.07
2019-03-31T04:33:26.560Z,7.97
2019-03-31T04:35:54.104Z,7.92
2019-03-31T04:38:21.594Z,7.84
2019-03-31T04:40:49.115Z,7.86
2019-03-31T04:43:16.583Z,7.90
2019-03-31T04:45:44.103Z,7.76
2019-03-31T04:48:11.595Z,7.79
2019-03-31T04:50:39.144Z,7.70
2019-03-31T04:53:06.705Z,7.71
2019-03-31T04:55:34.227Z,7.65
2019-03-31T04:58:01.752Z,7.72
2019-03-31T05:00:29.230Z,7.60
2019-03-31T05:02:56.746Z,7.67
2019-03-31T05:05:24.302Z,7.61
2019-03-31T05:07:51.860Z,7.60
2019-03-31T05:10:19.347Z,7.65
2019-03-31T05:12:46.864Z,7.55
2019-03-31T05:15:14.354Z,7.57
2019-03-31T05:17:41.869Z,7.65
2019-03-31T05:20:09.433Z,7.50
2019-03-31T05:22:36.956Z,7.46
2019-03-31T05:25:04.561Z,7.43
2019-03-31T05:27:32.080Z,7.39
2019-03-31T05:29:59.562Z,7.34
2019-03-31T05:32:27.186Z,7.30
2019-03-31T05:34:54.716Z,7.12
2019-03-31T05:37:22.218Z,7.12
2019-03-31T05:39:49.865Z,6.93
2019-03-31T05:42:17.395Z,6.87
2019-03-31T05:44:44.864Z,6.76
2019-03-31T05:47:12.391Z,6.69
2019-03-31T05:49:39.902Z,6.59
2019-03-31T05:52:07.430Z,6.75
2019-03-31T05:54:35.257Z,6.74
2019-03-31T05:57:03.175Z,6.69
2019-03-31T05:59:30.733Z,6.89
2019-03-31T06:01:58.295Z,6.76
2019-03-31T06:04:33.127Z,6.78
2019-03-31T06:06:55.275Z,6.78
2019-03-31T06:09:22.762Z,6.70
2019-03-31T06:11:53.262Z,6.66
2019-03-31T06:14:19.675Z,6.64
2019-03-31T06:16:47.373Z,6.63
2019-03-31T06:19:14.871Z,6.75
2019-03-31T06:21:42.419Z,6.92
2019-03-31T06:24:09.907Z,6.86
2019-03-31T06:26:37.529Z,6.99
2019-03-31T06:29:05.010Z,7.06
2019-03-31T06:31:32.531Z,7.03
2019-03-31T06:34:00.056Z,6.99
2019-03-31T06:36:27.562Z,7.08
2019-03-31T06:38:55.060Z,7.06
2019-03-31T06:41:22.560Z,7.04
2019-03-31T06:43:50.094Z,6.98
2019-03-31T06:46:17.684Z,7.05
2019-03-31T06:48:45.199Z,7.19
2019-03-31T06:51:12.678Z,7.27
2019-03-31T06:53:40.196Z,7.30
2019-03-31T06:56:07.700Z,7.62
2019-03-31T06:58:35.234Z,7.47
2019-03-31T07:01:02.862Z,7.46
2019-03-31T07:03:30.395Z,7.52
2019-03-31T07:05:57.974Z,7.60
2019-03-31T07:08:25.488Z,7.64
2019-03-31T07:10:53.010Z,7.65
2019-03-31T07:13:20.525Z,7.66
2019-03-31T07:15:48.105Z,7.83
2019-03-31T07:18:16.043Z,7.86
2019-03-31T07:20:43.645Z,8.05
2019-03-31T07:23:11.328Z,7.98
2019-03-31T07:25:38.817Z,8.08
2019-03-31T07:28:06.393Z,8.09
2019-03-31T07:30:33.867Z,8.01
2019-03-31T07:33:01.410Z,8.00
2019-03-31T07:35:28.910Z,8.19
2019-03-31T07:37:56.690Z,8.04
2019-03-31T07:40:24.413Z,8.21
2019-03-31T07:42:52.363Z,8.13
2019-03-31T07:45:20.058Z,8.18
2019-03-31T07:47:47.559Z,8.20
2019-03-31T07:50:15.872Z,8.21
2019-03-31T07:52:43.626Z,8.30
2019-03-31T07:55:11.551Z,8.28
2019-03-31T07:57:39.121Z,8.34
2019-03-31T08:00:10.474Z,8.42
2019-03-31T08:02:37.998Z,8.60
2019-03-31T08:05:07.962Z,8.75
2019-03-31T08:07:36.208Z,8.77
2019-03-31T08:10:04.435Z,8.81
2019-03-31T08:12:31.971Z,8.98
2019-03-31T08:14:59.499Z,8.86
2019-03-31T08:17:27.004Z,8.94
2019-03-31T08:19:54.567Z,9.09
2019-03-31T08:22:22.093Z,9.01
2019-03-31T08:24:49.578Z,9.03
2019-03-31T08:27:18.942Z,9.08
2019-03-31T08:29:53.064Z,9.21
2019-03-31T08:32:15.856Z,9.22
2019-03-31T08:34:43.611Z,9.25
2019-03-31T08:37:11.344Z,9.17
2019-03-31T08:39:38.961Z,9.19
2019-03-31T08:42:06.550Z,9.20
2019-03-31T08:44:34.091Z,9.32
2019-03-31T08:47:01.631Z,9.31
2019-03-31T08:49:29.351Z,9.43
2019-03-31T08:51:56.864Z,9.22
2019-03-31T08:54:24.505Z,9.19
2019-03-31T08:56:52.081Z,9.43
2019-03-31T08:59:19.660Z,9.29
2019-03-31T09:01:47.137Z,9.29
2019-03-31T09:04:14.644Z,9.43
2019-03-31T09:06:42.151Z,9.54
2019-03-31T09:09:09.700Z,9.49
2019-03-31T09:11:37.210Z,9.66
2019-03-31T09:14:04.982Z,9.55
2019-03-31T09:16:32.637Z,9.58
2019-03-31T09:19:00.244Z,9.72
2019-03-31T09:21:27.825Z,9.59
2019-03-31T09:23:55.744Z,9.79
2019-03-31T09:26:23.231Z,9.99
2019-03-31T09:28:50.786Z,10.01
2019-03-31T09:31:18.287Z,10.17
2019-03-31T09:33:45.909Z,10.29
2019-03-31T09:36:16.530Z,10.01
2019-03-31T09:38:43.023Z,10.13
2019-03-31T09:41:10.542Z,9.91
2019-03-31T09:43:38.040Z,10.03
2019-03-31T09:46:05.764Z,10.02
2019-03-31T09:48:33.321Z,9.68
2019-03-31T09:51:04.184Z,9.68
2019-03-31T09:53:31.699Z,9.68
2019-03-31T09:55:59.176Z,9.66
2019-03-31T09:58:26.782Z,9.73
2019-03-31T10:00:54.646Z,9.56
2019-03-31T10:03:22.240Z,9.62
2019-03-31T10:05:49.989Z,9.64
2019-03-31T10:08:21.545Z,9.62
2019-03-31T10:10:47.352Z,9.78
2019-03-31T10:13:14.842Z,9.87
2019-03-31T10:15:42.378Z,10.03
2019-03-31T10:18:09.938Z,10.01
2019-03-31T10:20:37.967Z,10.09
2019-03-31T10:23:06.101Z,10.03
2019-03-31T10:25:34.334Z,9.80
2019-03-31T10:28:02.264Z,10.03
2019-03-31T10:30:34.549Z,10.08
2019-03-31T10:33:03.323Z,10.18
2019-03-31T10:35:31.179Z,9.81
2019-03-31T10:37:58.655Z,9.66
2019-03-31T10:40:26.283Z,9.46
2019-03-31T10:42:53.867Z,9.33
2019-03-31T10:45:23.999Z,9.43
2019-03-31T10:47:51.514Z,9.52
2019-03-31T10:50:19.215Z,9.49
2019-03-31T10:52:46.941Z,9.51
2019-03-31T10:55:14.748Z,9.43
2019-03-31T10:57:42.271Z,9.63
2019-03-31T11:00:10.605Z,9.72
2019-03-31T11:02:38.111Z,9.80
2019-03-31T11:05:06.972Z,9.75
2019-03-31T11:07:34.770Z,9.72
2019-03-31T11:10:02.349Z,9.67
2019-03-31T11:12:29.845Z,9.89
2019-03-31T11:14:57.359Z,10.56
2019-03-31T11:17:24.834Z,10.72
2019-03-31T11:19:52.377Z,10.83
2019-03-31T11:22:33.319Z,10.82
2019-03-31T11:25:00.903Z,10.78
2019-03-31T11:27:28.386Z,10.51
2019-03-31T11:29:55.913Z,10.71
2019-03-31T11:32:23.396Z,10.83
2019-03-31T11:34:50.918Z,10.75
2019-03-31T11:37:18.413Z,10.57
2019-03-31T11:39:45.935Z,10.70
2019-03-31T11:42:13.418Z,10.60
2019-03-31T11:44:40.905Z,10.45
2019-03-31T11:47:08.914Z,10.43
2019-03-31T11:49:36.414Z,10.37
2019-03-31T11:52:03.962Z,10.26
2019-03-31T11:54:31.473Z,10.35
2019-03-31T11:56:59.004Z,10.41
2019-03-31T11:59:26.520Z,10.34
2019-03-31T12:01:54.040Z,10.16
2019-03-31T12:04:21.531Z,10.24
2019-03-31T12:06:49.063Z,10.56
2019-03-31T12:09:16.552Z,10.96
2019-03-31T12:11:45.632Z,11.15
2019-03-31T12:14:13.453Z,11.16
2019-03-31T12:16:40.970Z,10.96
2019-03-31T12:19:08.548Z,10.87
2019-03-31T12:21:36.072Z,10.92
2019-03-31T12:24:03.595Z,10.96
2019-03-31T12:26:31.107Z,11.19
2019-03-31T12:28:58.636Z,11.08
2019-03-31T12:31:26.327Z,10.92
2019-03-31T12:33:53.811Z,10.95
2019-03-31T12:36:21.344Z,11.03
2019-03-31T12:38:48.862Z,11.02
2019-03-31T12:41:16.381Z,11.11
2019-03-31T12:43:43.867Z,11.26
2019-03-31T12:46:11.437Z,11.35
2019-03-31T12:48:39.956Z,11.28
2019-03-31T12:51:07.477Z,11.35
2019-03-31T12:53:35.003Z,11.25
2019-03-31T12:56:03.643Z,11.26
2019-03-31T12:58:33.040Z,11.42
2019-03-31T13:01:02.833Z,11.46
2019-03-31T13:03:30.968Z,11.38
2019-03-31T13:05:58.656Z,11.91
2019-03-31T13:08:26.251Z,11.94
2019-03-31T13:10:53.763Z,12.07
2019-03-31T13:13:21.275Z,12.11
2019-03-31T13:15:48.763Z,11.86
2019-03-31T13:18:16.380Z,11.74
2019-03-31T13:20:43.880Z,11.67
2019-03-31T13:23:11.417Z,11.76
2019-03-31T13:25:38.891Z,11.86
2019-03-31T13:28:06.416Z,11.74
2019-03-31T13:30:33.957Z,11.79
2019-03-31T13:33:02.008Z,11.49
2019-03-31T13:35:29.488Z,11.65
2019-03-31T13:38:10.409Z,11.88
2019-03-31T13:40:26.409Z,11.89
2019-03-31T13:42:53.915Z,11.75
2019-03-31T13:45:21.400Z,11.32
2019-03-31T13:47:48.933Z,11.26
2019-03-31T13:50:16.782Z,11.31
2019-03-31T13:52:44.304Z,11.61
2019-03-31T13:55:11.909Z,11.81
2019-03-31T13:57:41.813Z,11.65
2019-03-31T14:00:10.917Z,11.66
2019-03-31T14:02:38.565Z,11.95
2019-03-31T14:05:06.550Z,12.15
2019-03-31T14:07:34.152Z,12.49
2019-03-31T14:10:01.667Z,12.62
2019-03-31T14:12:29.172Z,12.94
2019-03-31T14:14:56.663Z,12.44
2019-03-31T14:17:25.656Z,12.26
2019-03-31T14:19:53.141Z,12.07
2019-03-31T14:22:20.768Z,11.99
2019-03-31T14:24:48.241Z,12.60
2019-03-31T14:27:15.799Z,12.49
2019-03-31T14:29:43.263Z,12.23
2019-03-31T14:32:10.784Z,12.13
2019-03-31T14:34:38.269Z,12.11
2019-03-31T14:37:05.770Z,12.09
2019-03-31T14:39:33.255Z,11.78
2019-03-31T14:42:00.756Z,11.88
2019-03-31T14:44:28.401Z,11.95
2019-03-31T14:46:55.882Z,12.40
2019-03-31T14:49:25.872Z,12.41
2019-03-31T14:51:52.783Z,12.58
2019-03-31T14:54:20.362Z,12.43
2019-03-31T14:56:47.837Z,12.70
2019-03-31T14:59:15.414Z,12.88
2019-03-31T15:01:43.941Z,12.23
2019-03-31T15:04:11.439Z,11.93
2019-03-31T15:06:38.904Z,12.17
2019-03-31T15:09:07.354Z,12.29
2019-03-31T15:11:34.877Z,12.10
2019-03-31T15:14:02.741Z,11.91
2019-03-31T15:16:30.233Z,11.92
2019-03-31T15:18:57.741Z,12.25
2019-03-31T15:21:25.380Z,12.33
2019-03-31T15:23:52.891Z,12.07
2019-03-31T15:26:20.375Z,11.88
2019-03-31T15:28:48.045Z,12.21
2019-03-31T15:31:15.888Z,12.40
2019-03-31T15:33:43.472Z,12.23
2019-03-31T15:36:10.969Z,12.40
2019-03-31T15:38:38.479Z,12.08
2019-03-31T15:41:05.948Z,11.95
2019-03-31T15:43:33.445Z,12.05
2019-03-31T15:46:00.924Z,11.98
2019-03-31T15:48:28.454Z,11.90
2019-03-31T15:50:55.941Z,12.01
2019-03-31T15:53:23.547Z,12.22
2019-03-31T15:55:51.138Z,12.36
2019-03-31T15:58:18.701Z,12.32
2019-03-31T16:00:46.189Z,12.32
2019-03-31T16:03:14.352Z,12.24
2019-03-31T16:05:41.888Z,12.14
2019-03-31T16:08:08.907Z,12.15
2019-03-31T16:10:35.855Z,12.51
2019-03-31T16:13:03.126Z,12.08
2019-03-31T16:15:30.158Z,12.12
2019-03-31T16:17:57.105Z,12.23
2019-03-31T16:20:24.090Z,12.24
2019-03-31T16:22:51.028Z,12.44
2019-03-31T16:25:29.806Z,12.51
2019-03-31T16:27:57.405Z,12.22
2019-03-31T16:30:24.625Z,12.09
2019-03-31T16:33:07.607Z,12.02
2019-03-31T16:35:34.590Z,11.72
2019-03-31T16:38:01.536Z,11.46
2019-03-31T16:40:28.511Z,11.47
2019-03-31T16:42:55.465Z,11.41
2019-03-31T16:45:22.544Z,11.22
2019-03-31T16:47:49.510Z,11.26
2019-03-31T16:50:16.504Z,11.25
2019-03-31T16:52:43.553Z,11.28
2019-03-31T16:55:11.261Z,11.20
2019-03-31T16:57:38.209Z,11.02
2019-03-31T17:00:05.756Z,10.96
2019-03-31T17:02:32.849Z,10.92
2019-03-31T17:05:21.714Z,10.92
2019-03-31T17:07:40.473Z,10.76
2019-03-31T17:10:08.063Z,10.79
2019-03-31T17:12:34.991Z,10.71
2019-03-31T17:15:02.846Z,10.67
2019-03-31T17:17:29.892Z,10.62
2019-03-31T17:20:06.782Z,10.62
2019-03-31T17:22:34.166Z,10.58
2019-03-31T17:25:03.035Z,10.50
2019-03-31T17:27:30.064Z,10.39
2019-03-31T17:29:57.034Z,10.36
2019-03-31T17:32:23.972Z,10.35
2019-03-31T17:34:50.961Z,10.33
2019-03-31T17:37:17.917Z,10.11
2019-03-31T17:39:44.930Z,10.15
2019-03-31T17:42:13.777Z,10.05
2019-03-31T17:44:42.452Z,9.99
2019-03-31T17:47:09.414Z,9.82
2019-03-31T17:49:36.483Z,9.85
2019-03-31T17:52:05.240Z,9.75
2019-03-31T17:54:32.239Z,9.68
2019-03-31T17:56:59.209Z,9.73
2019-03-31T17:59:26.252Z,9.59
2019-03-31T18:01:53.222Z,9.52
2019-03-31T18:04:20.323Z,9.56
2019-03-31T18:06:47.271Z,9.47
2019-03-31T18:09:14.202Z,9.44
2019-03-31T18:11:41.183Z,9.37
2019-03-31T18:14:08.154Z,9.39
2019-03-31T18:16:35.210Z,9.38
2019-03-31T18:19:02.215Z,9.19
2019-03-31T18:21:29.321Z,9.04
2019-03-31T18:23:56.279Z,8.99
2019-03-31T18:26:23.348Z,8.96
2019-03-31T18:28:50.519Z,8.86
2019-03-31T18:31:49.745Z,8.81
2019-03-31T18:34:16.703Z,8.73
2019-03-31T18:36:43.676Z,8.59
2019-03-31T18:39:10.611Z,8.63
2019-03-31T18:41:37.585Z,8.46
2019-03-31T18:44:04.556Z,8.49
2019-03-31T18:46:31.746Z,8.41
2019-03-31T18:48:58.697Z,8.41
2019-03-31T18:51:25.696Z,8.35
2019-03-31T18:54:09.815Z,8.15
2019-03-31T18:56:56.434Z,8.08
2019-03-31T18:59:43.023Z,7.98
2019-03-31T19:02:28.606Z,7.86
2019-03-31T19:05:27.677Z,7.91
2019-03-31T19:08:21.989Z,7.83
2019-03-31T19:11:15.033Z,7.81
2019-03-31T19:14:00.864Z,7.61
2019-03-31T19:16:46.032Z,7.60
2019-03-31T19:19:29.152Z,7.46
2019-03-31T19:22:05.317Z,7.44
2019-03-31T19:24:48.413Z,7.36
2019-03-31T19:27:33.504Z,7.36
2019-03-31T19:30:16.504Z,7.22
2019-03-31T19:33:02.085Z,7.12
2019-03-31T19:36:04.180Z,6.98
2019-03-31T19:38:59.668Z,6.95
2019-03-31T19:41:58.161Z,6.96
2019-03-31T19:44:34.520Z,6.90
2019-03-31T19:47:28.678Z,6.84
2019-03-31T19:50:15.246Z,6.76
2019-03-31T19:52:50.075Z,6.74
2019-03-31T19:56:06.956Z,6.74
2019-03-31T19:59:00.281Z,6.53
2019-03-31T20:01:49.954Z,6.50
2019-03-31T20:04:29.757Z,6.56
2019-03-31T20:07:22.192Z,6.40
2019-03-31T20:10:00.378Z,6.43
2019-03-31T20:12:42.641Z,6.32
2019-03-31T20:15:44.293Z,6.34
2019-03-31T20:18:21.096Z,6.06
2019-03-31T20:20:58.030Z,6.23
2019-03-31T20:23:33.712Z,6.04
2019-03-31T20:26:18.993Z,6.16
2019-03-31T20:29:15.396Z,6.14
2019-03-31T20:31:54.653Z,6.05
2019-03-31T20:34:27.711Z,5.97
2019-03-31T20:37:03.498Z,6.03
2019-03-31T20:39:56.963Z,5.80
2019-03-31T20:42:42.207Z,5.84
2019-03-31T20:45:09.565Z,5.76
2019-03-31T20:47:36.645Z,5.74
2019-03-31T20:50:04.391Z,5.84
2019-03-31T20:52:31.361Z,5.63
2019-03-31T20:54:58.306Z,5.61
2019-03-31T20:57:25.298Z,5.53
2019-03-31T20:59:52.300Z,5.57
2019-03-31T21:02:19.422Z,5.42
2019-03-31T21:04:46.384Z,5.44
2019-03-31T21:07:13.463Z,5.39
2019-03-31T21:09:45.159Z,5.32
2019-03-31T21:12:09.442Z,5.36
2019-03-31T21:14:36.384Z,5.41
2019-03-31T21:17:03.377Z,5.34
2019-03-31T21:19:30.800Z,5.27
2019-03-31T21:21:57.775Z,5.20
2019-03-31T21:24:24.727Z,5.39
2019-03-31T21:26:53.164Z,5.12
2019-03-31T21:29:20.630Z,5.23
2019-03-31T21:31:47.618Z,5.36
2019-03-31T21:34:14.572Z,5.33
2019-03-31T21:36:41.531Z,5.27
2019-03-31T21:39:10.082Z,5.22
2019-03-31T21:41:37.071Z,5.19
2019-03-31T21:44:04.153Z,5.15
2019-03-31T21:46:31.107Z,5.13
2019-03-31T21:48:58.143Z,5.11
2019-03-31T21:51:25.317Z,5.11
2019-03-31T21:53:52.291Z,5.08
2019-03-31T21:56:19.254Z,5.04
2019-03-31T21:58:46.258Z,5.12
2019-03-31T22:01:13.524Z,5.01
2019-03-31T22:03:40.715Z,5.00
2019-03-31T22:06:07.661Z,4.97
2019-03-31T22:08:34.683Z,5.02
2019-03-31T22:11:01.612Z,4.94
2019-03-31T22:13:28.703Z,4.93
2019-03-31T22:15:55.743Z,4.85
2019-03-31T22:18:22.732Z,4.85
2019-03-31T22:20:49.782Z,4.78
2019-03-31T22:23:16.768Z,4.80
2019-03-31T22:25:43.717Z,4.78
2019-03-31T22:28:10.759Z,4.69
2019-03-31T22:30:37.692Z,4.72
2019-03-31T22:33:05.092Z,4.69
2019-03-31T22:35:32.065Z,4.67
2019-03-31T22:38:02.576Z,4.64
2019-03-31T22:40:29.869Z,4.57
2019-03-31T22:42:57.077Z,4.53
2019-03-31T22:45:24.039Z,4.60
2019-03-31T22:47:51.037Z,4.62
2019-03-31T22:50:18.030Z,4.60
2019-03-31T22:52:44.966Z,4.58
2019-03-31T22:55:11.925Z,4.52
2019-03-31T22:57:38.886Z,4.53
2019-03-31T23:00:07.251Z,4.52
2019-03-31T23:02:35.421Z,4.49
2019-03-31T23:05:02.397Z,4.44
2019-03-31T23:07:29.342Z,4.45
2019-03-31T23:09:56.318Z,4.50
2019-03-31T23:12:23.265Z,4.53
2019-03-31T23:14:50.283Z,4.40
2019-03-31T23:17:17.218Z,4.41
2019-03-31T23:19:44.317Z,4.41
2019-03-31T23:22:11.255Z,4.37
2019-03-31T23:24:38.312Z,4.34
2019-03-31T23:27:05.241Z,4.38
2019-03-31T23:29:32.214Z,4.37
2019-03-31T23:31:59.142Z,4.37
2019-03-31T23:34:26.134Z,4.36
2019-03-31T23:36:53.077Z,4.40
2019-03-31T23:39:20.190Z,4.40
2019-03-31T23:41:47.132Z,4.29
2019-03-31T23:44:14.100Z,4.15
2019-03-31T23:46:41.056Z,4.29
2019-03-31T23:49:08.034Z,4.26
2019-03-31T23:51:34.978Z,4.23
2019-03-31T23:54:01.978Z,4.17
2019-03-31T23:56:28.924Z,4.15
2019-03-31T23:58:55.929Z,4.13
